createdAt,value
2023-08-22T00:00:52.000Z,68.16
2023-08-22T00:05:53.981Z,69.56
2023-08-22T00:10:58.364Z,70.04
2023-08-22T00:16:02.040Z,71.25
2023-08-22T00:21:04.026Z,67.53
2023-08-22T00:26:05.881Z,65.45
2023-08-22T00:31:07.841Z,65.16
2023-08-22T00:36:09.740Z,68.34
2023-08-22T00:41:11.566Z,70.65
2023-08-22T00:46:13.695Z,72.40
2023-08-22T00:51:15.848Z,71.63
2023-08-22T00:56:17.744Z,67.97
2023-08-22T01:01:19.738Z,67.87
2023-08-22T01:06:44.404Z,70.17
2023-08-22T01:11:46.597Z,70.44
2023-08-22T01:16:48.944Z,69.75
2023-08-22T01:21:51.610Z,68.86
2023-08-22T01:26:53.586Z,68.20
2023-08-22T01:32:07.990Z,68.31
2023-08-22T01:37:10.409Z,68.93
2023-08-22T01:42:12.311Z,69.19
2023-08-22T01:47:14.204Z,69.76
2023-08-22T01:52:16.160Z,70.05
2023-08-22T01:57:18.090Z,70.38
2023-08-22T02:02:20.100Z,70.42
2023-08-22T02:07:22.071Z,70.25
2023-08-22T02:12:23.982Z,70.66
2023-08-22T02:17:25.898Z,71.32
2023-08-22T02:22:27.835Z,71.75
2023-08-22T02:27:29.681Z,72.14
2023-08-22T02:32:31.622Z,72.11
2023-08-22T02:37:33.560Z,71.26
2023-08-22T02:42:35.381Z,70.48
2023-08-22T02:47:37.436Z,70.52
2023-08-22T02:52:39.132Z,71.61
2023-08-22T02:57:41.212Z,70.69
2023-08-22T03:02:43.373Z,70.26
2023-08-22T03:07:45.240Z,70.92
2023-08-22T03:12:47.093Z,67.99
2023-08-22T03:17:48.996Z,64.31
2023-08-22T03:22:50.909Z,61.24
2023-08-22T03:27:52.547Z,61.36
2023-08-22T03:32:54.480Z,61.99
2023-08-22T03:37:56.126Z,64.01
2023-08-22T03:42:57.989Z,61.72
2023-08-22T03:47:59.901Z,55.43
2023-08-22T03:53:01.916Z,52.44
2023-08-22T03:58:03.973Z,48.42
2023-08-22T04:03:05.897Z,48.24
2023-08-22T04:08:07.798Z,48.49
2023-08-22T04:13:09.618Z,45.43
2023-08-22T04:18:11.673Z,40.61
2023-08-22T04:23:13.636Z,36.91
2023-08-22T04:28:16.522Z,38.28
2023-08-22T04:33:19.311Z,42.10
2023-08-22T04:38:21.181Z,45.22
2023-08-22T04:43:23.047Z,46.18
2023-08-22T04:48:24.881Z,47.84
2023-08-22T04:53:26.708Z,48.48
2023-08-22T04:58:28.580Z,47.82
2023-08-22T05:03:30.378Z,46.59
2023-08-22T05:08:32.272Z,46.42
2023-08-22T05:13:34.166Z,45.13
2023-08-22T05:18:37.249Z,45.26
2023-08-22T05:23:39.329Z,43.86
2023-08-22T05:28:41.226Z,43.27
2023-08-22T05:33:43.119Z,39.18
2023-08-22T05:38:45.038Z,37.15
2023-08-22T05:43:46.923Z,36.00
2023-08-22T05:48:48.939Z,38.11
2023-08-22T05:53:50.869Z,39.91
2023-08-22T05:58:52.920Z,40.49
2023-08-22T06:03:54.894Z,40.68
2023-08-22T06:08:57.294Z,36.96
2023-08-22T06:13:59.118Z,35.39
2023-08-22T06:19:04.285Z,34.15
2023-08-22T06:24:07.191Z,34.10
2023-08-22T06:29:09.105Z,35.35
2023-08-22T06:34:11.492Z,36.84
2023-08-22T06:39:13.489Z,37.10
2023-08-22T06:44:15.607Z,34.99
2023-08-22T06:49:17.723Z,32.99
2023-08-22T06:59:35.522Z,30.95
2023-08-22T07:04:37.894Z,32.45
2023-08-22T07:09:41.040Z,34.00
2023-08-22T07:14:46.099Z,34.47
2023-08-22T07:19:47.984Z,32.03
2023-08-22T07:24:50.783Z,31.61
2023-08-22T07:29:53.187Z,32.96
2023-08-22T07:34:56.836Z,26.03
2023-08-22T07:40:01.751Z,24.34
2023-08-22T07:45:05.601Z,24.28
2023-08-22T07:50:09.589Z,22.57
2023-08-22T07:55:12.239Z,25.54
2023-08-22T08:00:16.318Z,29.23
2023-08-22T08:05:19.050Z,31.19
2023-08-22T08:10:21.857Z,32.90
2023-08-22T08:15:24.865Z,33.88
2023-08-22T08:20:28.809Z,35.95
2023-08-22T08:25:34.829Z,36.21
2023-08-22T08:30:37.481Z,36.20
2023-08-22T08:35:40.010Z,37.15
2023-08-22T08:40:43.678Z,37.91
2023-08-22T08:45:47.095Z,38.77
2023-08-22T08:50:51.065Z,38.34
2023-08-22T08:55:55.253Z,38.67
2023-08-22T09:01:08.783Z,39.27
2023-08-22T09:06:11.889Z,38.19
2023-08-22T09:11:14.573Z,37.33
2023-08-22T09:16:20.125Z,36.98
2023-08-22T09:21:22.907Z,37.41
2023-08-22T09:26:26.119Z,37.99
2023-08-22T09:31:28.949Z,38.41
2023-08-22T09:36:35.634Z,37.65
2023-08-22T09:41:40.813Z,37.96
2023-08-22T09:46:43.585Z,40.68
2023-08-22T09:51:48.767Z,41.31
2023-08-22T09:56:56.789Z,42.74
2023-08-22T10:02:01.004Z,44.19
2023-08-22T10:07:03.195Z,45.97
2023-08-22T10:12:10.893Z,48.50
2023-08-22T10:27:52.443Z,52.52
2023-08-22T10:33:28.740Z,55.19
2023-08-22T10:39:01.667Z,55.10
2023-08-22T10:44:05.361Z,54.02
2023-08-22T10:49:08.680Z,53.39
2023-08-22T10:54:30.688Z,53.27
2023-08-22T10:59:35.940Z,51.97
2023-08-22T11:04:40.067Z,51.83
2023-08-22T11:09:42.110Z,52.04
2023-08-22T11:14:48.328Z,51.12
2023-08-22T11:19:50.848Z,51.19
2023-08-22T11:24:53.961Z,51.67
2023-08-22T11:29:59.249Z,51.91
2023-08-22T11:35:05.717Z,52.46
2023-08-22T11:40:08.831Z,52.75
2023-08-22T11:45:17.745Z,51.68
2023-08-22T11:50:31.300Z,51.45
2023-08-22T11:55:35.143Z,51.99
2023-08-22T12:00:37.457Z,52.25
2023-08-22T12:05:46.125Z,53.66
2023-08-22T12:10:53.208Z,53.16
2023-08-22T12:16:00.181Z,52.88
2023-08-22T12:21:06.481Z,53.47
2023-08-22T12:26:08.569Z,53.91
2023-08-22T12:31:27.549Z,54.13
2023-08-22T12:36:29.484Z,53.47
2023-08-22T12:41:35.796Z,53.26
2023-08-22T12:46:38.991Z,53.76
2023-08-22T12:51:42.288Z,55.51
2023-08-22T12:56:48.688Z,55.63
2023-08-22T13:01:51.870Z,53.14
2023-08-22T13:06:53.875Z,52.76
2023-08-22T13:11:55.811Z,51.27
2023-08-22T13:17:04.594Z,50.68
2023-08-22T13:22:07.288Z,49.21
2023-08-22T13:27:09.707Z,49.83
2023-08-22T13:32:12.020Z,49.31
2023-08-22T13:42:34.114Z,48.36
2023-08-22T13:47:36.713Z,48.20
2023-08-22T13:52:44.924Z,48.81
2023-08-22T13:57:47.247Z,49.02
2023-08-22T14:02:51.151Z,49.02
2023-08-22T14:07:57.292Z,49.89
2023-08-22T14:13:08.765Z,49.13
2023-08-22T14:18:13.529Z,49.34
2023-08-22T14:23:15.439Z,48.53
2023-08-22T14:28:17.340Z,48.68
2023-08-22T14:33:19.437Z,47.36
2023-08-22T14:38:21.482Z,48.11
2023-08-22T14:43:23.684Z,49.32
2023-08-22T14:48:25.663Z,50.89
2023-08-22T14:53:28.924Z,52.15
2023-08-22T14:58:44.185Z,52.95
2023-08-22T15:03:46.695Z,53.47
2023-08-22T15:08:48.659Z,53.42
2023-08-22T15:13:50.602Z,54.40
2023-08-22T15:18:52.563Z,55.38
2023-08-22T15:23:54.216Z,55.92
2023-08-22T15:28:56.056Z,56.30
2023-08-22T15:33:58.701Z,57.04
2023-08-22T15:39:00.528Z,57.02
2023-08-22T15:44:03.290Z,57.42
2023-08-22T15:49:05.332Z,58.32
2023-08-22T15:54:07.049Z,59.30
2023-08-22T15:59:08.904Z,60.32
2023-08-22T16:04:10.879Z,60.85
2023-08-22T16:09:12.813Z,61.52
2023-08-22T16:14:15.070Z,62.05
2023-08-22T16:19:16.921Z,62.63
2023-08-22T16:24:19.834Z,62.80
2023-08-22T16:29:21.771Z,63.50
2023-08-22T16:34:23.459Z,64.11
2023-08-22T16:39:25.376Z,65.07
2023-08-22T16:44:27.126Z,65.62
2023-08-22T16:49:29.016Z,66.21
2023-08-22T16:54:30.642Z,67.31
2023-08-22T16:59:32.771Z,67.76
2023-08-22T17:04:34.699Z,68.61
2023-08-22T17:09:36.757Z,69.66
2023-08-22T17:14:38.406Z,71.48
2023-08-22T17:19:40.310Z,71.56
2023-08-22T17:24:42.156Z,72.59
2023-08-22T17:29:44.082Z,73.43
2023-08-22T17:34:45.916Z,74.32
2023-08-22T17:39:47.846Z,75.47
2023-08-22T17:44:51.467Z,76.72
2023-08-22T17:49:53.343Z,76.67
2023-08-22T17:54:55.319Z,77.73
2023-08-22T17:59:57.181Z,78.50
2023-08-22T18:04:59.188Z,79.16
2023-08-22T18:10:00.848Z,80.20
2023-08-22T18:15:02.974Z,79.87
2023-08-22T18:20:06.357Z,80.79
2023-08-22T18:25:08.470Z,81.29
2023-08-22T18:30:10.408Z,82.04
2023-08-22T18:35:12.343Z,81.50
2023-08-22T18:40:14.401Z,82.10
2023-08-22T18:45:16.229Z,82.87
2023-08-22T18:50:18.386Z,82.87
2023-08-22T18:55:20.302Z,82.87
2023-08-22T19:00:22.230Z,83.11
2023-08-22T19:05:23.973Z,83.73
2023-08-22T19:10:25.892Z,83.74
2023-08-22T19:15:27.746Z,84.73
2023-08-22T19:20:29.728Z,85.56
2023-08-22T19:25:31.775Z,85.84
2023-08-22T19:30:33.683Z,86.12
2023-08-22T19:35:39.312Z,86.05
2023-08-22T19:40:44.622Z,85.47
2023-08-22T19:45:46.589Z,84.86
2023-08-22T19:50:48.531Z,84.63
2023-08-22T19:55:50.424Z,84.87
2023-08-22T20:00:55.122Z,84.99
2023-08-22T20:06:00.614Z,85.77
2023-08-22T20:11:02.595Z,86.21
2023-08-22T20:16:04.581Z,86.52
2023-08-22T20:21:06.495Z,86.92
2023-08-22T20:26:08.354Z,87.41
2023-08-22T20:31:11.871Z,87.96
2023-08-22T20:36:13.941Z,88.79
2023-08-22T20:41:15.811Z,88.76
2023-08-22T20:46:17.694Z,89.21
2023-08-22T20:51:19.559Z,89.58
2023-08-22T20:56:21.442Z,90.20
2023-08-22T21:01:23.422Z,90.40
2023-08-22T21:06:25.379Z,90.50
2023-08-22T21:11:27.321Z,91.19
2023-08-22T21:16:30.808Z,91.56
2023-08-22T21:21:34.774Z,92.00
2023-08-22T21:26:36.627Z,92.43
2023-08-22T21:31:38.604Z,92.96
2023-08-22T21:36:40.312Z,94.06
2023-08-22T21:41:42.163Z,93.27
2023-08-22T21:46:44.073Z,93.72
2023-08-22T21:51:45.973Z,94.04
2023-08-22T21:56:47.883Z,94.16
2023-08-22T22:01:49.897Z,94.48
2023-08-22T22:06:51.916Z,94.57
2023-08-22T22:11:53.772Z,94.35
2023-08-22T22:16:55.648Z,94.26
2023-08-22T22:21:57.631Z,94.48
2023-08-22T22:26:59.535Z,94.59
2023-08-22T22:32:01.413Z,94.71
2023-08-22T22:37:03.224Z,95.05
2023-08-22T22:42:05.365Z,95.73
2023-08-22T22:47:07.098Z,97.09
2023-08-22T22:52:08.906Z,96.53
2023-08-22T22:57:10.758Z,97.13
2023-08-22T23:02:12.668Z,97.53
2023-08-22T23:07:14.520Z,98.05
2023-08-22T23:12:16.461Z,98.65
2023-08-22T23:17:18.629Z,98.88
2023-08-22T23:22:20.276Z,100.00
2023-08-22T23:27:22.162Z,99.76
2023-08-22T23:32:29.486Z,100.00
2023-08-22T23:37:31.616Z,100.00
2023-08-22T23:42:34.973Z,100.00
2023-08-22T23:47:37.005Z,100.00
2023-08-22T23:52:39.041Z,100.00
2023-08-22T23:57:40.900Z,100.00
